Terminal Aerodrome Forecast
Issued by NWS

Home | Current Version | Previous Version | Text Only | Print | Product List | Glossary On
Versions: 1 2 3 4 5 6 7 8 9 10 11 12
000
FTUS46 KSEW 282300
TAFBFI
TAF
KBFI 282320Z 2900/2924 30008G14KT P6SM SKC
     FM290200 30006KT P6SM SKC
     FM290600 VRB03KT P6SM SKC
     FM292000 30008KT P6SM SKC=

USA.gov is the U.S. government's official web portal to all federal, state and local government web resources and services.